createdAt,value
2022-09-09T00:02:19.148Z,0.82
2022-09-09T00:04:59.305Z,0.90
2022-09-09T00:07:34.998Z,1.00
2022-09-09T00:10:23.775Z,1.00
2022-09-09T00:13:18.303Z,0.90
2022-09-09T00:16:13.446Z,0.90
2022-09-09T00:18:51.548Z,0.90
2022-09-09T00:21:19.537Z,0.90
2022-09-09T00:23:56.936Z,0.82
2022-09-09T00:26:48.053Z,1.00
2022-09-09T00:29:18.743Z,0.82
2022-09-09T00:31:45.652Z,0.90
2022-09-09T00:34:14.469Z,0.90
2022-09-09T00:36:42.790Z,1.05
2022-09-09T00:39:35.905Z,1.25
2022-09-09T00:42:21.166Z,0.80
2022-09-09T00:45:13.140Z,0.82
2022-09-09T00:48:02.791Z,1.00
2022-09-09T00:50:30.771Z,0.90
2022-09-09T00:53:16.960Z,0.85
2022-09-09T00:55:57.425Z,1.08
2022-09-09T00:58:24.275Z,1.15
2022-09-09T01:01:12.166Z,1.02
2022-09-09T01:03:55.218Z,0.80
2022-09-09T01:06:30.729Z,0.93
2022-09-09T01:09:19.157Z,0.80
2022-09-09T01:12:18.623Z,0.82
2022-09-09T01:14:55.184Z,1.45
2022-09-09T01:17:26.618Z,0.80
2022-09-09T01:20:18.320Z,0.98
2022-09-09T01:23:10.010Z,0.88
2022-09-09T01:25:58.023Z,0.90
2022-09-09T01:28:29.139Z,0.95
2022-09-09T01:31:05.494Z,0.95
2022-09-09T01:33:39.424Z,1.10
2022-09-09T01:36:13.835Z,1.23
2022-09-09T01:38:48.826Z,1.90
2022-09-09T01:41:16.535Z,1.17
2022-09-09T01:44:01.727Z,1.02
2022-09-09T01:46:30.434Z,1.00
2022-09-09T01:49:00.088Z,1.00
2022-09-09T01:51:27.888Z,1.10
2022-09-09T01:53:56.424Z,1.02
2022-09-09T01:56:48.335Z,1.02
2022-09-09T01:59:24.745Z,0.95
2022-09-09T02:02:25.338Z,0.82
2022-09-09T02:05:28.142Z,0.90
2022-09-09T02:08:21.425Z,0.90
2022-09-09T02:11:10.016Z,1.50
2022-09-09T02:13:46.359Z,0.75
2022-09-09T02:16:19.559Z,0.82
2022-09-09T02:18:56.459Z,0.98
2022-09-09T02:21:35.999Z,1.00
2022-09-09T02:24:06.282Z,1.05
2022-09-09T02:26:42.474Z,0.95
2022-09-09T02:29:18.894Z,1.20
2022-09-09T02:31:50.668Z,1.08
2022-09-09T02:34:24.674Z,1.00
2022-09-09T02:36:54.242Z,1.23
2022-09-09T02:39:21.312Z,0.95
2022-09-09T02:41:50.630Z,1.23
2022-09-09T02:44:19.208Z,1.10
2022-09-09T02:47:14.536Z,1.20
2022-09-09T02:49:50.522Z,1.10
2022-09-09T02:52:31.127Z,0.95
2022-09-09T02:55:05.452Z,1.05
2022-09-09T02:57:34.164Z,0.80
2022-09-09T03:00:02.625Z,0.98
2022-09-09T03:02:32.388Z,1.00
2022-09-09T03:05:06.067Z,1.25
2022-09-09T03:07:33.046Z,0.80
2022-09-09T03:10:01.054Z,0.88
2022-09-09T03:12:28.517Z,1.00
2022-09-09T03:14:55.436Z,1.05
2022-09-09T03:17:22.366Z,0.90
2022-09-09T03:19:55.593Z,1.20
2022-09-09T03:22:22.985Z,1.13
2022-09-09T03:24:50.114Z,1.10
2022-09-09T03:27:18.376Z,1.40
2022-09-09T03:29:46.036Z,1.38
2022-09-09T03:32:18.294Z,1.15
2022-09-09T03:34:45.549Z,0.98
2022-09-09T03:37:14.367Z,1.63
2022-09-09T03:39:41.345Z,1.77
2022-09-09T03:42:09.691Z,1.30
2022-09-09T03:44:36.589Z,0.98
2022-09-09T03:47:03.589Z,1.17
2022-09-09T03:49:30.492Z,1.35
2022-09-09T03:51:58.469Z,1.27
2022-09-09T03:54:26.502Z,1.20
2022-09-09T03:56:53.490Z,1.55
2022-09-09T03:59:22.308Z,1.30
2022-09-09T04:01:49.604Z,1.30
2022-09-09T04:04:16.620Z,1.20
2022-09-09T04:06:43.677Z,1.50
2022-09-09T04:09:10.698Z,1.42
2022-09-09T04:11:38.164Z,1.50
2022-09-09T04:14:07.091Z,1.80
2022-09-09T04:16:36.390Z,1.10
2022-09-09T04:19:05.193Z,1.17
2022-09-09T04:21:32.407Z,1.40
2022-09-09T04:24:00.952Z,1.20
2022-09-09T04:26:28.079Z,1.27
2022-09-09T04:28:55.010Z,1.90
2022-09-09T04:31:24.757Z,1.30
2022-09-09T04:33:54.557Z,1.38
2022-09-09T04:36:22.562Z,1.70
2022-09-09T04:38:51.852Z,1.52
2022-09-09T04:41:19.042Z,1.58
2022-09-09T04:43:50.837Z,1.40
2022-09-09T04:46:20.702Z,1.40
2022-09-09T04:48:50.540Z,1.67
2022-09-09T04:51:18.451Z,1.60
2022-09-09T04:53:49.688Z,1.00
2022-09-09T04:56:18.662Z,1.42
2022-09-09T04:58:50.827Z,1.20
2022-09-09T05:01:25.756Z,1.27
2022-09-09T05:03:57.446Z,1.52
2022-09-09T05:06:24.698Z,1.92
2022-09-09T05:08:57.289Z,1.27
2022-09-09T05:11:29.432Z,1.60
2022-09-09T05:14:02.005Z,1.88
2022-09-09T05:16:31.257Z,1.48
2022-09-09T05:19:00.037Z,1.60
2022-09-09T05:21:32.863Z,2.03
2022-09-09T05:24:01.530Z,1.30
2022-09-09T05:26:30.398Z,1.30
2022-09-09T05:29:00.025Z,1.65
2022-09-09T05:31:29.395Z,1.45
2022-09-09T05:33:56.401Z,1.52
2022-09-09T05:36:24.188Z,1.25
2022-09-09T05:38:55.549Z,1.42
2022-09-09T05:41:24.163Z,1.35
2022-09-09T05:43:54.436Z,2.05
2022-09-09T05:46:25.973Z,1.90
2022-09-09T05:48:54.661Z,1.98
2022-09-09T05:51:31.036Z,1.60
2022-09-09T05:53:59.990Z,1.63
2022-09-09T05:56:30.464Z,1.73
2022-09-09T05:59:01.150Z,1.60
2022-09-09T06:01:29.979Z,2.13
2022-09-09T06:03:57.905Z,1.77
2022-09-09T06:06:27.844Z,1.65
2022-09-09T06:08:59.146Z,1.90
2022-09-09T06:11:32.167Z,1.67
2022-09-09T06:14:01.088Z,1.40
2022-09-09T06:16:31.220Z,1.33
2022-09-09T06:18:59.018Z,2.13
2022-09-09T06:21:38.038Z,1.60
2022-09-09T06:24:08.537Z,1.63
2022-09-09T06:26:38.907Z,1.73
2022-09-09T06:29:06.461Z,1.58
2022-09-09T06:31:37.802Z,1.83
2022-09-09T06:34:10.476Z,1.75
2022-09-09T06:36:41.343Z,1.40
2022-09-09T06:39:14.776Z,1.67
2022-09-09T06:41:43.613Z,1.60
2022-09-09T06:44:33.341Z,1.30
2022-09-09T06:47:03.221Z,1.27
2022-09-09T06:49:30.291Z,1.23
2022-09-09T06:51:57.433Z,1.65
2022-09-09T06:54:26.412Z,1.40
2022-09-09T06:56:54.488Z,1.45
2022-09-09T06:59:24.072Z,1.30
2022-09-09T07:01:56.244Z,1.27
2022-09-09T07:04:23.954Z,2.05
2022-09-09T07:06:53.407Z,1.60
2022-09-09T07:09:24.851Z,1.60
2022-09-09T07:11:54.204Z,1.40
2022-09-09T07:14:23.686Z,1.60
2022-09-09T07:17:01.308Z,1.05
2022-09-09T07:19:33.313Z,1.30
2022-09-09T07:22:01.028Z,1.30
2022-09-09T07:24:31.587Z,1.35
2022-09-09T07:26:59.536Z,1.55
2022-09-09T07:29:27.298Z,1.55
2022-09-09T07:31:54.476Z,1.20
2022-09-09T07:34:26.317Z,1.35
2022-09-09T07:36:53.325Z,1.63
2022-09-09T07:39:20.751Z,1.45
2022-09-09T07:41:52.085Z,1.65
2022-09-09T07:44:24.231Z,1.52
2022-09-09T07:46:57.519Z,1.40
2022-09-09T07:49:32.943Z,1.40
2022-09-09T07:52:01.783Z,1.73
2022-09-09T07:54:29.333Z,1.50
2022-09-09T07:56:56.234Z,1.17
2022-09-09T07:59:26.705Z,1.40
2022-09-09T08:01:55.960Z,1.75
2022-09-09T08:04:27.180Z,1.80
2022-09-09T08:07:00.735Z,1.42
2022-09-09T08:09:30.274Z,1.25
2022-09-09T08:12:17.626Z,1.80
2022-09-09T08:14:44.978Z,1.42
2022-09-09T08:17:11.891Z,1.17
2022-09-09T08:19:39.252Z,1.20
2022-09-09T08:22:11.660Z,1.80
2022-09-09T08:24:40.682Z,1.40
2022-09-09T08:27:08.744Z,1.17
2022-09-09T08:29:35.645Z,1.58
2022-09-09T08:32:03.231Z,1.45
2022-09-09T08:34:31.490Z,1.55
2022-09-09T08:37:01.247Z,1.77
2022-09-09T08:39:37.407Z,1.20
2022-09-09T08:42:19.691Z,1.20
2022-09-09T08:45:01.294Z,1.70
2022-09-09T08:47:50.800Z,1.42
2022-09-09T08:50:35.010Z,1.20
2022-09-09T08:53:09.480Z,1.10
2022-09-09T08:55:51.049Z,1.33
2022-09-09T08:58:30.262Z,1.08
2022-09-09T09:01:10.099Z,1.30
2022-09-09T09:03:56.498Z,1.10
2022-09-09T09:06:40.517Z,1.45
2022-09-09T09:09:12.456Z,1.50
2022-09-09T09:11:48.179Z,1.17
2022-09-09T09:14:26.297Z,1.13
2022-09-09T09:17:02.118Z,1.50
2022-09-09T09:19:31.188Z,1.70
2022-09-09T09:22:17.065Z,1.20
2022-09-09T09:25:11.731Z,1.40
2022-09-09T09:28:07.923Z,1.23
2022-09-09T09:30:46.939Z,1.27
2022-09-09T09:33:33.161Z,1.30
2022-09-09T09:36:00.904Z,1.88
2022-09-09T09:41:19.475Z,1.13
2022-09-09T09:43:55.156Z,1.70
2022-09-09T09:46:28.382Z,1.40
2022-09-09T09:49:09.903Z,1.33
2022-09-09T09:51:38.547Z,0.95
2022-09-09T09:54:37.022Z,1.40
2022-09-09T09:57:17.150Z,1.70
2022-09-09T09:59:47.037Z,1.30
2022-09-09T10:02:26.637Z,1.20
2022-09-09T10:05:07.856Z,1.20
2022-09-09T10:07:38.612Z,1.10
2022-09-09T10:10:07.260Z,1.17
2022-09-09T10:12:45.233Z,1.30
2022-09-09T10:15:45.936Z,1.88
2022-09-09T10:18:28.330Z,1.45
2022-09-09T10:21:33.363Z,1.27
2022-09-09T10:24:45.509Z,1.13
2022-09-09T10:27:54.264Z,1.13
2022-09-09T10:30:30.828Z,1.60
2022-09-09T10:33:11.279Z,1.40
2022-09-09T10:35:59.741Z,1.98
2022-09-09T10:38:47.643Z,1.70
2022-09-09T10:41:27.537Z,1.52
2022-09-09T10:44:08.153Z,1.42
2022-09-09T10:46:41.155Z,1.52
2022-09-09T10:49:28.886Z,1.70
2022-09-09T10:51:59.963Z,1.55
2022-09-09T10:54:53.019Z,1.33
2022-09-09T10:57:32.995Z,1.33
2022-09-09T11:00:37.309Z,1.33
2022-09-09T11:03:05.340Z,0.90
2022-09-09T11:05:46.564Z,0.98
2022-09-09T11:08:27.902Z,0.95
2022-09-09T11:11:05.014Z,1.65
2022-09-09T11:13:46.980Z,1.70
2022-09-09T11:16:22.727Z,1.60
2022-09-09T11:18:50.264Z,1.00
2022-09-09T11:21:27.617Z,1.30
2022-09-09T11:24:00.838Z,1.23
2022-09-09T11:26:42.695Z,1.17
2022-09-09T11:29:24.689Z,1.13
2022-09-09T11:32:17.641Z,1.20
2022-09-09T11:35:28.327Z,1.20
2022-09-09T11:38:04.772Z,1.40
2022-09-09T11:40:33.788Z,1.38
2022-09-09T11:43:10.499Z,1.10
2022-09-09T11:45:38.024Z,1.60
2022-09-09T11:48:07.091Z,1.42
2022-09-09T11:50:38.488Z,0.90
2022-09-09T11:53:14.868Z,1.30
2022-09-09T11:55:42.002Z,1.30
2022-09-09T11:58:12.031Z,1.50
2022-09-09T12:00:48.074Z,1.25
2022-09-09T12:03:35.993Z,1.27
2022-09-09T12:06:15.328Z,1.35
2022-09-09T12:08:53.919Z,1.17
2022-09-09T12:11:31.673Z,1.13
2022-09-09T12:14:03.245Z,1.27
2022-09-09T12:16:34.343Z,1.23
2022-09-09T12:19:17.160Z,1.00
2022-09-09T12:22:07.812Z,1.10
2022-09-09T12:24:44.518Z,1.15
2022-09-09T12:27:11.320Z,1.30
2022-09-09T12:29:43.968Z,2.10
2022-09-09T12:32:22.605Z,1.48
2022-09-09T12:35:00.977Z,1.20
2022-09-09T12:37:38.455Z,1.05
2022-09-09T12:40:19.588Z,1.00
2022-09-09T12:42:46.642Z,1.40
2022-09-09T12:45:33.348Z,1.23
2022-09-09T12:48:04.478Z,0.88
2022-09-09T12:50:38.691Z,1.30
2022-09-09T12:53:11.153Z,1.17
2022-09-09T12:55:40.516Z,1.08
2022-09-09T12:58:08.104Z,1.10
2022-09-09T13:00:36.041Z,1.20
2022-09-09T13:03:17.204Z,1.23
2022-09-09T13:05:44.171Z,1.20
2022-09-09T13:08:13.093Z,1.10
2022-09-09T13:10:58.913Z,1.48
2022-09-09T13:13:41.536Z,1.17
2022-09-09T13:16:39.076Z,1.10
2022-09-09T13:19:15.797Z,0.80
2022-09-09T13:21:43.682Z,1.02
2022-09-09T13:24:34.669Z,0.95
2022-09-09T13:27:03.073Z,0.93
2022-09-09T13:29:31.526Z,0.90
2022-09-09T13:32:17.706Z,0.80
2022-09-09T13:35:04.805Z,1.23
2022-09-09T13:37:39.651Z,0.80
2022-09-09T13:40:07.934Z,0.90
2022-09-09T13:42:40.384Z,1.05
2022-09-09T13:45:17.967Z,1.05
2022-09-09T13:47:46.283Z,1.23
2022-09-09T13:50:22.128Z,0.77
2022-09-09T13:52:52.495Z,0.73
2022-09-09T13:55:20.140Z,1.17
2022-09-09T13:57:58.541Z,0.70
2022-09-09T14:00:26.267Z,1.00
2022-09-09T14:02:56.064Z,1.02
2022-09-09T14:05:23.395Z,1.00
2022-09-09T14:07:53.175Z,0.93
2022-09-09T14:10:20.956Z,0.90
2022-09-09T14:12:47.856Z,0.75
2022-09-09T14:15:15.535Z,1.00
2022-09-09T14:17:43.062Z,1.10
2022-09-09T14:20:12.785Z,0.93
2022-09-09T14:22:40.321Z,0.88
2022-09-09T14:25:07.888Z,1.00
2022-09-09T14:27:35.086Z,1.17
2022-09-09T14:30:02.330Z,0.80
2022-09-09T14:32:30.185Z,1.08
2022-09-09T14:34:57.941Z,1.10
2022-09-09T14:37:25.085Z,0.82
2022-09-09T14:39:51.980Z,1.02
2022-09-09T14:42:19.197Z,0.85
2022-09-09T14:44:46.169Z,0.88
2022-09-09T14:47:12.996Z,0.80
2022-09-09T14:49:41.637Z,1.42
2022-09-09T14:52:10.859Z,1.30
2022-09-09T14:54:37.745Z,1.40
2022-09-09T14:57:04.801Z,1.50
2022-09-09T14:59:31.743Z,1.55
2022-09-09T15:01:58.620Z,1.27
2022-09-09T15:04:25.545Z,1.33
2022-09-09T15:06:54.259Z,1.35
2022-09-09T15:09:21.303Z,1.33
2022-09-09T15:11:48.373Z,1.70
2022-09-09T15:14:15.284Z,1.40
2022-09-09T15:16:42.340Z,1.58
2022-09-09T15:19:10.269Z,1.30
2022-09-09T15:21:37.903Z,1.10
2022-09-09T15:24:05.716Z,1.52
2022-09-09T15:26:32.855Z,1.55
2022-09-09T15:29:00.334Z,1.10
2022-09-09T15:31:32.810Z,1.80
2022-09-09T15:34:02.421Z,1.70
2022-09-09T15:36:40.772Z,1.55
2022-09-09T15:39:13.896Z,1.58
2022-09-09T15:41:41.262Z,1.30
2022-09-09T15:44:08.795Z,1.80
2022-09-09T15:46:41.201Z,1.33
2022-09-09T15:49:12.091Z,1.48
2022-09-09T15:51:43.120Z,1.58
2022-09-09T15:54:17.949Z,1.70
2022-09-09T15:56:46.573Z,1.45
2022-09-09T15:59:13.682Z,1.42
2022-09-09T16:01:40.756Z,1.30
2022-09-09T16:04:07.620Z,1.67
2022-09-09T16:06:35.041Z,1.35
2022-09-09T16:09:05.769Z,1.27
2022-09-09T16:11:36.587Z,1.50
2022-09-09T16:14:06.359Z,1.40
2022-09-09T16:16:33.433Z,1.45
2022-09-09T16:19:13.772Z,1.30
2022-09-09T16:21:44.000Z,1.40
2022-09-09T16:24:13.772Z,1.10
2022-09-09T16:26:45.639Z,1.38
2022-09-09T16:29:16.894Z,1.20
2022-09-09T16:31:46.239Z,1.60
2022-09-09T16:34:13.497Z,1.20
2022-09-09T16:36:41.690Z,1.60
2022-09-09T16:39:11.948Z,1.40
2022-09-09T16:41:40.406Z,1.60
2022-09-09T16:44:09.432Z,1.98
2022-09-09T16:46:42.674Z,1.52
2022-09-09T16:49:14.493Z,1.38
2022-09-09T16:51:44.678Z,1.27
2022-09-09T16:54:12.536Z,1.52
2022-09-09T16:56:44.477Z,1.77
2022-09-09T16:59:16.694Z,2.03
2022-09-09T17:01:45.703Z,1.77
2022-09-09T17:04:17.192Z,1.60
2022-09-09T17:06:47.865Z,1.50
2022-09-09T17:09:15.994Z,1.60
2022-09-09T17:11:42.893Z,1.67
2022-09-09T17:14:14.064Z,2.05
2022-09-09T17:16:41.185Z,1.73
2022-09-09T17:19:09.911Z,2.33
2022-09-09T17:21:49.607Z,2.13
2022-09-09T17:24:26.217Z,2.50
2022-09-09T17:26:53.526Z,1.92
2022-09-09T17:29:20.905Z,1.73
2022-09-09T17:31:48.137Z,1.98
2022-09-09T17:34:15.325Z,1.90
2022-09-09T17:36:42.321Z,2.08
2022-09-09T17:39:09.553Z,2.45
2022-09-09T17:41:38.621Z,2.17
2022-09-09T17:46:42.179Z,1.73
2022-09-09T17:49:13.023Z,1.88
2022-09-09T17:51:42.582Z,2.08
2022-09-09T17:54:20.950Z,2.08
2022-09-09T17:56:48.582Z,1.60
2022-09-09T17:59:17.413Z,1.63
2022-09-09T18:01:47.012Z,1.70
2022-09-09T18:04:16.738Z,1.42
2022-09-09T18:06:50.732Z,1.65
2022-09-09T18:09:20.468Z,1.27
2022-09-09T18:11:50.968Z,1.55
2022-09-09T18:14:20.278Z,1.30
2022-09-09T18:16:47.831Z,1.80
2022-09-09T18:19:16.839Z,1.80
2022-09-09T18:21:44.612Z,1.30
2022-09-09T18:24:13.283Z,1.50
2022-09-09T18:26:41.517Z,1.73
2022-09-09T18:29:12.888Z,1.38
2022-09-09T18:31:42.611Z,1.52
2022-09-09T18:34:12.622Z,1.30
2022-09-09T18:36:45.404Z,1.58
2022-09-09T18:39:14.236Z,1.52
2022-09-09T18:41:47.217Z,1.17
2022-09-09T18:44:17.754Z,1.55
2022-09-09T18:46:45.498Z,1.15
2022-09-09T18:49:13.197Z,1.67
2022-09-09T18:51:41.339Z,1.67
2022-09-09T18:54:34.067Z,1.10
2022-09-09T18:57:01.645Z,1.70
2022-09-09T18:59:28.728Z,1.45
2022-09-09T19:01:55.831Z,1.10
2022-09-09T19:04:23.960Z,1.90
2022-09-09T19:06:57.843Z,1.50
2022-09-09T19:09:28.556Z,1.60
2022-09-09T19:11:55.931Z,1.52
2022-09-09T19:14:23.119Z,2.00
2022-09-09T19:16:51.749Z,1.60
2022-09-09T19:19:24.631Z,1.60
2022-09-09T19:21:51.700Z,1.40
2022-09-09T19:24:21.155Z,1.50
2022-09-09T19:26:53.216Z,1.38
2022-09-09T19:29:23.793Z,1.20
2022-09-09T19:32:29.332Z,1.25
2022-09-09T19:34:38.948Z,1.73
2022-09-09T19:37:05.797Z,1.30
2022-09-09T19:39:34.467Z,1.73
2022-09-09T19:42:01.890Z,1.30
2022-09-09T19:44:29.515Z,1.20
2022-09-09T19:46:56.315Z,1.23
2022-09-09T19:49:23.435Z,1.55
2022-09-09T19:51:50.411Z,1.08
2022-09-09T19:54:17.293Z,1.42
2022-09-09T19:56:44.637Z,1.08
2022-09-09T19:59:13.012Z,1.00
2022-09-09T20:01:44.539Z,1.25
2022-09-09T20:04:12.732Z,1.13
2022-09-09T20:06:41.778Z,1.40
2022-09-09T20:09:12.036Z,1.40
2022-09-09T20:11:39.343Z,1.42
2022-09-09T20:14:07.423Z,1.20
2022-09-09T20:16:34.314Z,1.08
2022-09-09T20:19:05.399Z,1.55
2022-09-09T20:21:33.359Z,1.48
2022-09-09T20:24:02.528Z,1.67
2022-09-09T20:26:35.196Z,1.75
2022-09-09T20:29:07.687Z,1.20
2022-09-09T20:31:37.220Z,1.15
2022-09-09T20:34:06.159Z,1.20
2022-09-09T20:36:35.562Z,1.48
2022-09-09T20:39:07.729Z,1.95
2022-09-09T20:41:37.068Z,1.65
2022-09-09T20:44:07.771Z,1.60
2022-09-09T20:46:37.440Z,1.67
2022-09-09T20:49:06.491Z,1.50
2022-09-09T20:51:35.027Z,1.58
2022-09-09T20:54:06.203Z,1.92
2022-09-09T20:56:37.711Z,1.65
2022-09-09T20:59:05.791Z,1.83
2022-09-09T21:01:32.707Z,1.92
2022-09-09T21:04:00.238Z,2.75
2022-09-09T21:06:27.175Z,2.10
2022-09-09T21:08:54.367Z,2.60
2022-09-09T21:11:21.524Z,2.55
2022-09-09T21:13:48.730Z,2.38
2022-09-09T21:16:22.316Z,2.65
2022-09-09T21:18:49.659Z,2.47
2022-09-09T21:21:21.168Z,2.33
2022-09-09T21:23:58.357Z,2.20
2022-09-09T21:26:26.148Z,2.10
2022-09-09T21:28:54.899Z,2.20
2022-09-09T21:31:27.389Z,2.22
2022-09-09T21:33:56.462Z,2.70
2022-09-09T21:36:24.136Z,2.10
2022-09-09T21:38:51.027Z,2.13
2022-09-09T21:41:19.044Z,1.90
2022-09-09T21:43:51.278Z,2.22
2022-09-09T21:46:18.284Z,1.48
2022-09-09T21:48:45.286Z,2.30
2022-09-09T21:51:15.095Z,1.80
2022-09-09T21:53:43.472Z,1.88
2022-09-09T21:56:12.616Z,1.55
2022-09-09T21:58:41.123Z,1.48
2022-09-09T22:01:16.616Z,2.58
2022-09-09T22:03:44.472Z,2.08
2022-09-09T22:06:14.490Z,1.70
2022-09-09T22:08:41.684Z,1.27
2022-09-09T22:11:11.623Z,2.08
2022-09-09T22:13:39.154Z,1.58
2022-09-09T22:16:12.248Z,1.70
2022-09-09T22:18:39.900Z,1.52
2022-09-09T22:21:10.444Z,1.90
2022-09-09T22:23:37.720Z,1.42
2022-09-09T22:26:05.737Z,2.00
2022-09-09T22:28:33.811Z,1.40
2022-09-09T22:31:00.987Z,2.35
2022-09-09T22:33:28.560Z,1.48
2022-09-09T22:35:55.466Z,1.98
2022-09-09T22:38:22.813Z,1.42
2022-09-09T22:40:49.684Z,1.73
2022-09-09T22:43:20.417Z,1.65
2022-09-09T22:45:47.935Z,1.67
2022-09-09T22:48:15.544Z,1.45
2022-09-09T22:50:42.921Z,1.60
2022-09-09T22:53:14.266Z,1.35
2022-09-09T22:55:41.287Z,1.52
2022-09-09T22:58:08.702Z,1.67
2022-09-09T23:00:35.865Z,1.58
2022-09-09T23:03:02.960Z,1.40
2022-09-09T23:05:30.612Z,1.70
2022-09-09T23:08:00.443Z,1.63
2022-09-09T23:10:33.446Z,1.70
2022-09-09T23:13:00.602Z,1.63
2022-09-09T23:15:31.287Z,1.65
2022-09-09T23:17:58.580Z,1.48
2022-09-09T23:20:26.601Z,1.60
2022-09-09T23:22:54.198Z,1.70
2022-09-09T23:25:21.157Z,1.83
2022-09-09T23:27:48.840Z,1.90
2022-09-09T23:30:16.089Z,1.60
2022-09-09T23:32:44.248Z,1.58
2022-09-09T23:35:11.093Z,1.45
2022-09-09T23:37:39.081Z,1.45
2022-09-09T23:40:06.906Z,1.25
2022-09-09T23:42:34.158Z,2.15
2022-09-09T23:45:01.094Z,1.70
2022-09-09T23:47:28.356Z,1.85
2022-09-09T23:49:55.263Z,1.70
2022-09-09T23:52:24.492Z,1.65
2022-09-09T23:54:51.314Z,1.25
2022-09-09T23:57:18.584Z,1.77
2022-09-09T23:59:45.452Z,1.70
